sensor_id;sensor_type;location;lat;lon;timestamp;P1;durP1;ratioP1;P2;durP2;ratioP2
5898;SDS011;2975;50.956;6.962;2023-08-31T00:01:46;5.10;;;2.20;;
5898;SDS011;2975;50.956;6.962;2023-08-31T00:04:13;5.37;;;2.37;;
5898;SDS011;2975;50.956;6.962;2023-08-31T00:06:42;6.23;;;2.53;;
5898;SDS011;2975;50.956;6.962;2023-08-31T00:09:10;3.63;;;1.57;;
5898;SDS011;2975;50.956;6.962;2023-08-31T00:11:36;4.90;;;2.17;;
5898;SDS011;2975;50.956;6.962;2023-08-31T00:14:02;5.90;;;2.00;;
5898;SDS011;2975;50.956;6.962;2023-08-31T00:16:28;4.57;;;2.30;;
5898;SDS011;2975;50.956;6.962;2023-08-31T00:18:55;5.53;;;1.93;;
5898;SDS011;2975;50.956;6.962;2023-08-31T00:21:21;5.87;;;2.13;;
5898;SDS011;2975;50.956;6.962;2023-08-31T00:23:47;7.67;;;1.73;;
5898;SDS011;2975;50.956;6.962;2023-08-31T00:26:13;7.33;;;2.60;;
5898;SDS011;2975;50.956;6.962;2023-08-31T00:28:39;5.23;;;2.20;;
5898;SDS011;2975;50.956;6.962;2023-08-31T00:31:07;6.10;;;2.00;;
5898;SDS011;2975;50.956;6.962;2023-08-31T00:33:33;5.20;;;2.13;;
5898;SDS011;2975;50.956;6.962;2023-08-31T00:36:00;7.97;;;2.83;;
5898;SDS011;2975;50.956;6.962;2023-08-31T00:38:29;5.93;;;2.33;;
5898;SDS011;2975;50.956;6.962;2023-08-31T00:40:55;7.23;;;2.60;;
5898;SDS011;2975;50.956;6.962;2023-08-31T00:43:21;4.03;;;2.40;;
5898;SDS011;2975;50.956;6.962;2023-08-31T00:45:48;5.37;;;2.37;;
5898;SDS011;2975;50.956;6.962;2023-08-31T00:48:16;3.77;;;2.60;;
5898;SDS011;2975;50.956;6.962;2023-08-31T00:50:46;4.40;;;2.40;;
5898;SDS011;2975;50.956;6.962;2023-08-31T00:53:12;4.37;;;2.10;;
5898;SDS011;2975;50.956;6.962;2023-08-31T00:55:38;4.70;;;2.13;;
5898;SDS011;2975;50.956;6.962;2023-08-31T00:58:05;5.37;;;2.60;;
5898;SDS011;2975;50.956;6.962;2023-08-31T01:00:36;6.60;;;2.57;;
5898;SDS011;2975;50.956;6.962;2023-08-31T01:03:12;7.50;;;2.17;;
5898;SDS011;2975;50.956;6.962;2023-08-31T01:11:12;8.50;;;3.00;;
5898;SDS011;2975;50.956;6.962;2023-08-31T01:14:10;5.63;;;2.70;;
5898;SDS011;2975;50.956;6.962;2023-08-31T01:16:50;10.00;;;2.80;;
5898;SDS011;2975;50.956;6.962;2023-08-31T01:20:00;8.27;;;2.50;;
5898;SDS011;2975;50.956;6.962;2023-08-31T01:22:09;7.47;;;3.13;;
5898;SDS011;2975;50.956;6.962;2023-08-31T01:24:39;6.60;;;2.70;;
5898;SDS011;2975;50.956;6.962;2023-08-31T01:27:06;8.27;;;3.20;;
5898;SDS011;2975;50.956;6.962;2023-08-31T01:29:32;7.00;;;3.07;;
5898;SDS011;2975;50.956;6.962;2023-08-31T01:31:58;4.87;;;3.07;;
5898;SDS011;2975;50.956;6.962;2023-08-31T01:34:23;5.77;;;3.17;;
5898;SDS011;2975;50.956;6.962;2023-08-31T01:36:53;5.27;;;2.93;;
5898;SDS011;2975;50.956;6.962;2023-08-31T01:39:33;5.60;;;2.93;;
5898;SDS011;2975;50.956;6.962;2023-08-31T01:42:07;6.37;;;3.03;;
5898;SDS011;2975;50.956;6.962;2023-08-31T01:44:38;6.00;;;3.20;;
5898;SDS011;2975;50.956;6.962;2023-08-31T01:47:04;3.50;;;2.63;;
5898;SDS011;2975;50.956;6.962;2023-08-31T01:49:37;6.10;;;3.07;;
5898;SDS011;2975;50.956;6.962;2023-08-31T01:52:06;5.60;;;3.07;;
5898;SDS011;2975;50.956;6.962;2023-08-31T01:54:32;11.63;;;3.33;;
5898;SDS011;2975;50.956;6.962;2023-08-31T01:56:58;10.57;;;3.40;;
5898;SDS011;2975;50.956;6.962;2023-08-31T01:59:24;5.83;;;2.80;;
5898;SDS011;2975;50.956;6.962;2023-08-31T02:01:50;5.10;;;2.70;;
5898;SDS011;2975;50.956;6.962;2023-08-31T02:04:15;4.80;;;3.17;;
5898;SDS011;2975;50.956;6.962;2023-08-31T02:06:42;4.70;;;2.87;;
5898;SDS011;2975;50.956;6.962;2023-08-31T02:09:07;8.20;;;3.30;;
5898;SDS011;2975;50.956;6.962;2023-08-31T02:11:33;4.93;;;3.00;;
5898;SDS011;2975;50.956;6.962;2023-08-31T02:14:02;6.03;;;3.30;;
5898;SDS011;2975;50.956;6.962;2023-08-31T02:16:32;5.80;;;3.00;;
5898;SDS011;2975;50.956;6.962;2023-08-31T02:18:58;5.77;;;3.40;;
5898;SDS011;2975;50.956;6.962;2023-08-31T02:21:24;6.03;;;2.90;;
5898;SDS011;2975;50.956;6.962;2023-08-31T02:23:49;5.47;;;3.40;;
5898;SDS011;2975;50.956;6.962;2023-08-31T02:26:15;4.07;;;3.20;;
5898;SDS011;2975;50.956;6.962;2023-08-31T02:28:40;3.50;;;3.00;;
5898;SDS011;2975;50.956;6.962;2023-08-31T02:31:06;7.70;;;3.03;;
5898;SDS011;2975;50.956;6.962;2023-08-31T02:33:32;7.23;;;3.53;;
5898;SDS011;2975;50.956;6.962;2023-08-31T02:35:58;5.13;;;3.13;;
5898;SDS011;2975;50.956;6.962;2023-08-31T02:38:23;7.57;;;3.07;;
5898;SDS011;2975;50.956;6.962;2023-08-31T02:40:49;8.50;;;2.97;;
5898;SDS011;2975;50.956;6.962;2023-08-31T02:43:15;5.40;;;3.03;;
5898;SDS011;2975;50.956;6.962;2023-08-31T02:45:40;7.67;;;3.17;;
5898;SDS011;2975;50.956;6.962;2023-08-31T02:48:06;7.47;;;3.13;;
5898;SDS011;2975;50.956;6.962;2023-08-31T02:50:34;7.63;;;3.17;;
5898;SDS011;2975;50.956;6.962;2023-08-31T02:53:00;5.77;;;2.77;;
5898;SDS011;2975;50.956;6.962;2023-08-31T02:55:25;8.07;;;3.07;;
5898;SDS011;2975;50.956;6.962;2023-08-31T02:57:51;5.73;;;2.67;;
5898;SDS011;2975;50.956;6.962;2023-08-31T03:00:17;3.93;;;3.10;;
5898;SDS011;2975;50.956;6.962;2023-08-31T03:02:46;3.93;;;2.80;;
5898;SDS011;2975;50.956;6.962;2023-08-31T03:05:12;5.67;;;2.60;;
5898;SDS011;2975;50.956;6.962;2023-08-31T03:07:38;4.00;;;2.70;;
5898;SDS011;2975;50.956;6.962;2023-08-31T03:10:04;5.17;;;2.83;;
5898;SDS011;2975;50.956;6.962;2023-08-31T03:12:30;4.73;;;3.37;;
5898;SDS011;2975;50.956;6.962;2023-08-31T03:14:55;4.87;;;2.63;;
5898;SDS011;2975;50.956;6.962;2023-08-31T03:17:21;4.67;;;3.03;;
5898;SDS011;2975;50.956;6.962;2023-08-31T03:19:46;8.10;;;3.27;;
5898;SDS011;2975;50.956;6.962;2023-08-31T03:22:12;6.67;;;2.90;;
5898;SDS011;2975;50.956;6.962;2023-08-31T03:24:37;6.10;;;4.30;;
5898;SDS011;2975;50.956;6.962;2023-08-31T03:27:03;4.77;;;3.00;;
5898;SDS011;2975;50.956;6.962;2023-08-31T03:29:29;5.77;;;2.90;;
5898;SDS011;2975;50.956;6.962;2023-08-31T03:31:56;3.70;;;3.07;;
5898;SDS011;2975;50.956;6.962;2023-08-31T03:34:23;4.57;;;2.80;;
5898;SDS011;2975;50.956;6.962;2023-08-31T03:36:48;4.73;;;3.00;;
5898;SDS011;2975;50.956;6.962;2023-08-31T03:39:15;4.13;;;2.70;;
5898;SDS011;2975;50.956;6.962;2023-08-31T03:41:41;5.27;;;2.77;;
5898;SDS011;2975;50.956;6.962;2023-08-31T03:44:06;5.60;;;3.17;;
5898;SDS011;2975;50.956;6.962;2023-08-31T03:46:32;4.53;;;2.90;;
5898;SDS011;2975;50.956;6.962;2023-08-31T03:48:57;3.57;;;2.13;;
5898;SDS011;2975;50.956;6.962;2023-08-31T03:51:23;7.20;;;2.67;;
5898;SDS011;2975;50.956;6.962;2023-08-31T03:53:48;2.43;;;2.23;;
5898;SDS011;2975;50.956;6.962;2023-08-31T03:56:14;3.30;;;2.17;;
5898;SDS011;2975;50.956;6.962;2023-08-31T03:58:40;4.43;;;2.53;;
5898;SDS011;2975;50.956;6.962;2023-08-31T04:01:05;3.20;;;2.13;;
5898;SDS011;2975;50.956;6.962;2023-08-31T04:03:31;3.77;;;2.50;;
5898;SDS011;2975;50.956;6.962;2023-08-31T04:05:56;5.27;;;2.87;;
5898;SDS011;2975;50.956;6.962;2023-08-31T04:08:22;5.30;;;2.47;;
5898;SDS011;2975;50.956;6.962;2023-08-31T04:10:48;4.00;;;2.80;;
5898;SDS011;2975;50.956;6.962;2023-08-31T04:13:13;6.20;;;2.63;;
5898;SDS011;2975;50.956;6.962;2023-08-31T04:15:39;3.43;;;1.90;;
5898;SDS011;2975;50.956;6.962;2023-08-31T04:18:04;4.73;;;2.30;;
5898;SDS011;2975;50.956;6.962;2023-08-31T04:20:30;6.43;;;2.30;;
5898;SDS011;2975;50.956;6.962;2023-08-31T04:22:58;5.43;;;2.40;;
5898;SDS011;2975;50.956;6.962;2023-08-31T04:25:23;3.83;;;2.27;;
5898;SDS011;2975;50.956;6.962;2023-08-31T04:27:49;6.70;;;3.07;;
5898;SDS011;2975;50.956;6.962;2023-08-31T04:30:15;6.07;;;2.27;;
5898;SDS011;2975;50.956;6.962;2023-08-31T04:32:40;6.57;;;2.43;;
5898;SDS011;2975;50.956;6.962;2023-08-31T04:35:06;5.67;;;2.30;;
5898;SDS011;2975;50.956;6.962;2023-08-31T04:37:32;3.33;;;2.13;;
5898;SDS011;2975;50.956;6.962;2023-08-31T04:39:58;3.13;;;2.10;;
5898;SDS011;2975;50.956;6.962;2023-08-31T04:42:24;7.40;;;3.00;;
5898;SDS011;2975;50.956;6.962;2023-08-31T04:44:50;3.63;;;2.47;;
5898;SDS011;2975;50.956;6.962;2023-08-31T04:47:15;4.87;;;2.50;;
5898;SDS011;2975;50.956;6.962;2023-08-31T04:49:41;3.53;;;2.23;;
5898;SDS011;2975;50.956;6.962;2023-08-31T04:52:07;4.23;;;2.30;;
5898;SDS011;2975;50.956;6.962;2023-08-31T04:54:33;4.43;;;2.50;;
5898;SDS011;2975;50.956;6.962;2023-08-31T04:56:58;4.67;;;2.37;;
5898;SDS011;2975;50.956;6.962;2023-08-31T04:59:24;5.67;;;2.60;;
5898;SDS011;2975;50.956;6.962;2023-08-31T05:01:50;4.23;;;2.70;;
5898;SDS011;2975;50.956;6.962;2023-08-31T05:04:15;3.10;;;2.30;;
5898;SDS011;2975;50.956;6.962;2023-08-31T05:06:41;6.80;;;2.90;;
5898;SDS011;2975;50.956;6.962;2023-08-31T05:09:06;6.77;;;2.30;;
5898;SDS011;2975;50.956;6.962;2023-08-31T05:11:33;3.00;;;1.97;;
5898;SDS011;2975;50.956;6.962;2023-08-31T05:13:58;4.77;;;2.13;;
5898;SDS011;2975;50.956;6.962;2023-08-31T05:16:24;5.03;;;2.57;;
5898;SDS011;2975;50.956;6.962;2023-08-31T05:18:49;6.23;;;2.47;;
5898;SDS011;2975;50.956;6.962;2023-08-31T05:21:15;11.40;;;2.93;;
5898;SDS011;2975;50.956;6.962;2023-08-31T05:23:40;7.20;;;2.57;;
5898;SDS011;2975;50.956;6.962;2023-08-31T05:26:06;6.07;;;3.10;;
5898;SDS011;2975;50.956;6.962;2023-08-31T05:28:32;5.43;;;2.43;;
5898;SDS011;2975;50.956;6.962;2023-08-31T05:30:59;12.07;;;2.63;;
5898;SDS011;2975;50.956;6.962;2023-08-31T05:33:25;5.83;;;2.37;;
5898;SDS011;2975;50.956;6.962;2023-08-31T05:35:53;7.30;;;2.80;;
5898;SDS011;2975;50.956;6.962;2023-08-31T05:38:18;5.10;;;2.60;;
5898;SDS011;2975;50.956;6.962;2023-08-31T05:40:44;3.47;;;2.10;;
5898;SDS011;2975;50.956;6.962;2023-08-31T05:43:13;5.93;;;2.13;;
5898;SDS011;2975;50.956;6.962;2023-08-31T05:45:39;5.83;;;2.20;;
5898;SDS011;2975;50.956;6.962;2023-08-31T05:48:05;7.03;;;2.20;;
5898;SDS011;2975;50.956;6.962;2023-08-31T05:50:32;2.07;;;1.70;;
5898;SDS011;2975;50.956;6.962;2023-08-31T05:52:58;5.27;;;2.33;;
5898;SDS011;2975;50.956;6.962;2023-08-31T05:55:23;5.93;;;1.63;;
5898;SDS011;2975;50.956;6.962;2023-08-31T05:57:49;9.57;;;2.00;;
5898;SDS011;2975;50.956;6.962;2023-08-31T06:00:15;7.13;;;1.90;;
5898;SDS011;2975;50.956;6.962;2023-08-31T06:02:41;2.77;;;1.50;;
5898;SDS011;2975;50.956;6.962;2023-08-31T06:05:09;5.33;;;2.63;;
5898;SDS011;2975;50.956;6.962;2023-08-31T06:07:37;6.00;;;1.83;;
5898;SDS011;2975;50.956;6.962;2023-08-31T06:10:03;3.23;;;1.60;;
5898;SDS011;2975;50.956;6.962;2023-08-31T06:12:29;6.57;;;2.07;;
5898;SDS011;2975;50.956;6.962;2023-08-31T06:14:55;6.00;;;2.17;;
5898;SDS011;2975;50.956;6.962;2023-08-31T06:17:21;5.33;;;2.03;;
5898;SDS011;2975;50.956;6.962;2023-08-31T06:19:46;6.53;;;2.20;;
5898;SDS011;2975;50.956;6.962;2023-08-31T06:22:12;5.20;;;2.17;;
5898;SDS011;2975;50.956;6.962;2023-08-31T06:24:37;4.27;;;2.20;;
5898;SDS011;2975;50.956;6.962;2023-08-31T06:27:03;6.80;;;1.60;;
5898;SDS011;2975;50.956;6.962;2023-08-31T06:29:29;2.87;;;1.97;;
5898;SDS011;2975;50.956;6.962;2023-08-31T06:31:55;3.13;;;1.83;;
5898;SDS011;2975;50.956;6.962;2023-08-31T06:34:20;4.80;;;1.90;;
5898;SDS011;2975;50.956;6.962;2023-08-31T06:36:46;4.87;;;1.90;;
5898;SDS011;2975;50.956;6.962;2023-08-31T06:39:11;6.70;;;2.53;;
5898;SDS011;2975;50.956;6.962;2023-08-31T06:41:37;4.43;;;2.63;;
5898;SDS011;2975;50.956;6.962;2023-08-31T06:44:02;5.53;;;2.03;;
5898;SDS011;2975;50.956;6.962;2023-08-31T06:46:29;4.60;;;2.40;;
5898;SDS011;2975;50.956;6.962;2023-08-31T06:48:58;5.77;;;2.27;;
5898;SDS011;2975;50.956;6.962;2023-08-31T06:51:24;3.77;;;1.90;;
5898;SDS011;2975;50.956;6.962;2023-08-31T06:53:50;6.17;;;1.90;;
5898;SDS011;2975;50.956;6.962;2023-08-31T06:56:16;2.90;;;1.70;;
5898;SDS011;2975;50.956;6.962;2023-08-31T06:58:41;6.43;;;1.87;;
5898;SDS011;2975;50.956;6.962;2023-08-31T07:01:08;4.37;;;1.57;;
5898;SDS011;2975;50.956;6.962;2023-08-31T07:03:34;6.93;;;1.80;;
5898;SDS011;2975;50.956;6.962;2023-08-31T07:06:00;2.70;;;1.33;;
5898;SDS011;2975;50.956;6.962;2023-08-31T07:08:25;5.60;;;2.00;;
5898;SDS011;2975;50.956;6.962;2023-08-31T07:10:51;7.57;;;1.90;;
5898;SDS011;2975;50.956;6.962;2023-08-31T07:13:17;4.50;;;1.73;;
5898;SDS011;2975;50.956;6.962;2023-08-31T07:15:42;2.50;;;1.53;;
5898;SDS011;2975;50.956;6.962;2023-08-31T07:18:08;2.77;;;1.47;;
5898;SDS011;2975;50.956;6.962;2023-08-31T07:20:34;1.53;;;1.43;;
5898;SDS011;2975;50.956;6.962;2023-08-31T07:22:59;4.47;;;1.70;;
5898;SDS011;2975;50.956;6.962;2023-08-31T07:25:25;1.93;;;1.13;;
5898;SDS011;2975;50.956;6.962;2023-08-31T07:27:50;3.63;;;1.50;;
5898;SDS011;2975;50.956;6.962;2023-08-31T07:30:17;2.50;;;1.40;;
5898;SDS011;2975;50.956;6.962;2023-08-31T07:32:42;3.60;;;1.27;;
5898;SDS011;2975;50.956;6.962;2023-08-31T07:35:08;5.83;;;1.43;;
5898;SDS011;2975;50.956;6.962;2023-08-31T07:37:34;4.07;;;1.53;;
5898;SDS011;2975;50.956;6.962;2023-08-31T07:40:00;2.10;;;1.23;;
5898;SDS011;2975;50.956;6.962;2023-08-31T07:42:26;5.53;;;1.30;;
5898;SDS011;2975;50.956;6.962;2023-08-31T07:44:51;2.63;;;1.50;;
5898;SDS011;2975;50.956;6.962;2023-08-31T07:47:17;4.60;;;1.40;;
5898;SDS011;2975;50.956;6.962;2023-08-31T07:49:42;1.77;;;1.37;;
5898;SDS011;2975;50.956;6.962;2023-08-31T07:52:09;6.87;;;1.50;;
5898;SDS011;2975;50.956;6.962;2023-08-31T07:54:34;3.53;;;1.30;;
5898;SDS011;2975;50.956;6.962;2023-08-31T07:57:00;3.97;;;1.90;;
5898;SDS011;2975;50.956;6.962;2023-08-31T07:59:26;4.93;;;1.40;;
5898;SDS011;2975;50.956;6.962;2023-08-31T08:01:52;7.80;;;1.47;;
5898;SDS011;2975;50.956;6.962;2023-08-31T08:04:20;2.37;;;1.13;;
5898;SDS011;2975;50.956;6.962;2023-08-31T08:06:45;5.40;;;1.50;;
5898;SDS011;2975;50.956;6.962;2023-08-31T08:09:11;3.53;;;1.50;;
5898;SDS011;2975;50.956;6.962;2023-08-31T08:11:37;3.97;;;1.60;;
5898;SDS011;2975;50.956;6.962;2023-08-31T08:14:03;3.63;;;1.43;;
5898;SDS011;2975;50.956;6.962;2023-08-31T08:16:28;3.67;;;1.20;;
5898;SDS011;2975;50.956;6.962;2023-08-31T08:18:54;3.87;;;1.67;;
5898;SDS011;2975;50.956;6.962;2023-08-31T08:21:20;3.50;;;1.20;;
5898;SDS011;2975;50.956;6.962;2023-08-31T08:23:45;3.27;;;1.23;;
5898;SDS011;2975;50.956;6.962;2023-08-31T08:26:11;2.13;;;1.20;;
5898;SDS011;2975;50.956;6.962;2023-08-31T08:28:36;2.87;;;1.60;;
5898;SDS011;2975;50.956;6.962;2023-08-31T08:31:02;5.90;;;1.83;;
5898;SDS011;2975;50.956;6.962;2023-08-31T08:33:29;2.60;;;1.77;;
5898;SDS011;2975;50.956;6.962;2023-08-31T08:35:58;5.87;;;1.63;;
5898;SDS011;2975;50.956;6.962;2023-08-31T08:38:25;4.20;;;1.50;;
5898;SDS011;2975;50.956;6.962;2023-08-31T08:40:50;4.23;;;1.70;;
5898;SDS011;2975;50.956;6.962;2023-08-31T08:43:16;2.57;;;1.40;;
5898;SDS011;2975;50.956;6.962;2023-08-31T08:45:49;4.60;;;1.63;;
5898;SDS011;2975;50.956;6.962;2023-08-31T08:48:16;3.13;;;1.30;;
5898;SDS011;2975;50.956;6.962;2023-08-31T08:50:44;5.10;;;1.30;;
5898;SDS011;2975;50.956;6.962;2023-08-31T08:53:10;3.40;;;1.20;;
5898;SDS011;2975;50.956;6.962;2023-08-31T08:55:36;5.30;;;1.27;;
5898;SDS011;2975;50.956;6.962;2023-08-31T08:58:02;2.53;;;1.40;;
5898;SDS011;2975;50.956;6.962;2023-08-31T09:00:29;2.67;;;1.30;;
5898;SDS011;2975;50.956;6.962;2023-08-31T09:02:55;5.27;;;1.60;;
5898;SDS011;2975;50.956;6.962;2023-08-31T09:05:21;1.60;;;1.17;;
5898;SDS011;2975;50.956;6.962;2023-08-31T09:08:00;3.97;;;1.60;;
5898;SDS011;2975;50.956;6.962;2023-08-31T09:10:35;3.90;;;1.50;;
5898;SDS011;2975;50.956;6.962;2023-08-31T09:13:05;2.27;;;1.30;;
5898;SDS011;2975;50.956;6.962;2023-08-31T09:15:46;4.30;;;1.80;;
5898;SDS011;2975;50.956;6.962;2023-08-31T09:18:14;3.80;;;1.47;;
5898;SDS011;2975;50.956;6.962;2023-08-31T09:20:43;4.83;;;1.53;;
5898;SDS011;2975;50.956;6.962;2023-08-31T09:23:13;2.60;;;1.30;;
5898;SDS011;2975;50.956;6.962;2023-08-31T09:25:46;3.60;;;1.43;;
5898;SDS011;2975;50.956;6.962;2023-08-31T09:28:24;7.23;;;1.50;;
5898;SDS011;2975;50.956;6.962;2023-08-31T09:30:52;3.77;;;1.40;;
5898;SDS011;2975;50.956;6.962;2023-08-31T09:33:19;4.13;;;1.20;;
5898;SDS011;2975;50.956;6.962;2023-08-31T09:35:48;3.93;;;1.67;;
5898;SDS011;2975;50.956;6.962;2023-08-31T09:38:16;7.43;;;1.43;;
5898;SDS011;2975;50.956;6.962;2023-08-31T09:40:41;1.47;;;1.13;;
5898;SDS011;2975;50.956;6.962;2023-08-31T09:43:07;3.13;;;1.40;;
5898;SDS011;2975;50.956;6.962;2023-08-31T09:45:33;3.83;;;1.40;;
5898;SDS011;2975;50.956;6.962;2023-08-31T09:48:00;4.70;;;1.23;;
5898;SDS011;2975;50.956;6.962;2023-08-31T09:50:31;2.20;;;1.20;;
5898;SDS011;2975;50.956;6.962;2023-08-31T09:53:03;3.87;;;1.47;;
5898;SDS011;2975;50.956;6.962;2023-08-31T09:55:33;5.37;;;2.33;;
5898;SDS011;2975;50.956;6.962;2023-08-31T09:58:00;5.20;;;1.07;;
5898;SDS011;2975;50.956;6.962;2023-08-31T10:00:28;2.67;;;1.20;;
5898;SDS011;2975;50.956;6.962;2023-08-31T10:02:55;5.30;;;1.40;;
5898;SDS011;2975;50.956;6.962;2023-08-31T10:05:22;5.27;;;1.20;;
5898;SDS011;2975;50.956;6.962;2023-08-31T10:07:49;2.90;;;1.30;;
5898;SDS011;2975;50.956;6.962;2023-08-31T10:10:16;3.13;;;1.30;;
5898;SDS011;2975;50.956;6.962;2023-08-31T10:12:42;1.60;;;1.23;;
5898;SDS011;2975;50.956;6.962;2023-08-31T10:15:10;2.77;;;1.47;;
5898;SDS011;2975;50.956;6.962;2023-08-31T10:17:37;2.88;;;1.30;;
5898;SDS011;2975;50.956;6.962;2023-08-31T10:20:05;2.55;;;1.40;;
5898;SDS011;2975;50.956;6.962;2023-08-31T10:22:53;4.18;;;1.38;;
5898;SDS011;2975;50.956;6.962;2023-08-31T10:25:19;3.10;;;2.05;;
5898;SDS011;2975;50.956;6.962;2023-08-31T10:27:45;3.40;;;1.20;;
5898;SDS011;2975;50.956;6.962;2023-08-31T10:30:12;3.77;;;1.30;;
5898;SDS011;2975;50.956;6.962;2023-08-31T10:40:41;4.63;;;1.70;;
5898;SDS011;2975;50.956;6.962;2023-08-31T10:43:15;5.53;;;1.50;;
5898;SDS011;2975;50.956;6.962;2023-08-31T10:45:44;3.57;;;1.20;;
5898;SDS011;2975;50.956;6.962;2023-08-31T10:48:10;2.33;;;1.27;;
5898;SDS011;2975;50.956;6.962;2023-08-31T10:50:45;2.97;;;1.03;;
5898;SDS011;2975;50.956;6.962;2023-08-31T10:53:14;4.80;;;1.30;;
5898;SDS011;2975;50.956;6.962;2023-08-31T10:55:52;2.37;;;1.30;;
5898;SDS011;2975;50.956;6.962;2023-08-31T10:58:18;2.50;;;0.98;;
5898;SDS011;2975;50.956;6.962;2023-08-31T11:00:51;4.35;;;1.80;;
5898;SDS011;2975;50.956;6.962;2023-08-31T11:03:21;1.47;;;1.10;;
5898;SDS011;2975;50.956;6.962;2023-08-31T11:05:53;5.65;;;1.52;;
5898;SDS011;2975;50.956;6.962;2023-08-31T11:08:22;1.85;;;1.13;;
5898;SDS011;2975;50.956;6.962;2023-08-31T11:10:49;3.50;;;1.23;;
5898;SDS011;2975;50.956;6.962;2023-08-31T11:13:22;2.55;;;1.42;;
5898;SDS011;2975;50.956;6.962;2023-08-31T11:15:48;4.50;;;1.40;;
5898;SDS011;2975;50.956;6.962;2023-08-31T11:18:15;2.58;;;1.30;;
5898;SDS011;2975;50.956;6.962;2023-08-31T11:20:42;2.70;;;1.42;;
5898;SDS011;2975;50.956;6.962;2023-08-31T11:23:09;3.70;;;1.63;;
5898;SDS011;2975;50.956;6.962;2023-08-31T11:25:35;4.13;;;1.50;;
5898;SDS011;2975;50.956;6.962;2023-08-31T11:28:02;5.38;;;1.05;;
5898;SDS011;2975;50.956;6.962;2023-08-31T11:30:30;4.30;;;1.40;;
5898;SDS011;2975;50.956;6.962;2023-08-31T11:32:58;3.20;;;1.45;;
5898;SDS011;2975;50.956;6.962;2023-08-31T11:35:30;3.90;;;1.52;;
5898;SDS011;2975;50.956;6.962;2023-08-31T11:38:07;6.32;;;2.00;;
5898;SDS011;2975;50.956;6.962;2023-08-31T11:40:33;3.50;;;1.50;;
5898;SDS011;2975;50.956;6.962;2023-08-31T11:42:59;5.53;;;1.63;;
5898;SDS011;2975;50.956;6.962;2023-08-31T11:45:33;8.82;;;1.50;;
5898;SDS011;2975;50.956;6.962;2023-08-31T11:48:00;4.13;;;1.65;;
5898;SDS011;2975;50.956;6.962;2023-08-31T11:50:28;4.43;;;1.50;;
5898;SDS011;2975;50.956;6.962;2023-08-31T11:52:54;4.50;;;1.50;;
5898;SDS011;2975;50.956;6.962;2023-08-31T11:55:20;3.22;;;1.52;;
5898;SDS011;2975;50.956;6.962;2023-08-31T11:57:52;4.27;;;1.77;;
5898;SDS011;2975;50.956;6.962;2023-08-31T12:00:21;3.73;;;1.60;;
5898;SDS011;2975;50.956;6.962;2023-08-31T12:02:55;2.63;;;1.37;;
5898;SDS011;2975;50.956;6.962;2023-08-31T12:05:22;3.50;;;1.40;;
5898;SDS011;2975;50.956;6.962;2023-08-31T12:07:48;2.50;;;1.37;;
5898;SDS011;2975;50.956;6.962;2023-08-31T12:10:14;1.53;;;1.17;;
5898;SDS011;2975;50.956;6.962;2023-08-31T12:12:40;2.33;;;1.23;;
5898;SDS011;2975;50.956;6.962;2023-08-31T12:15:05;3.07;;;1.20;;
5898;SDS011;2975;50.956;6.962;2023-08-31T12:17:31;1.67;;;1.20;;
5898;SDS011;2975;50.956;6.962;2023-08-31T12:20:02;3.37;;;1.43;;
5898;SDS011;2975;50.956;6.962;2023-08-31T12:22:30;2.00;;;1.00;;
5898;SDS011;2975;50.956;6.962;2023-08-31T12:24:55;2.33;;;1.30;;
5898;SDS011;2975;50.956;6.962;2023-08-31T12:27:21;3.03;;;1.17;;
5898;SDS011;2975;50.956;6.962;2023-08-31T12:29:47;3.90;;;1.50;;
5898;SDS011;2975;50.956;6.962;2023-08-31T12:32:13;4.82;;;1.40;;
5898;SDS011;2975;50.956;6.962;2023-08-31T12:34:39;2.67;;;1.33;;
5898;SDS011;2975;50.956;6.962;2023-08-31T12:37:05;5.70;;;1.60;;
5898;SDS011;2975;50.956;6.962;2023-08-31T12:39:31;4.73;;;1.77;;
5898;SDS011;2975;50.956;6.962;2023-08-31T12:41:57;3.43;;;1.60;;
5898;SDS011;2975;50.956;6.962;2023-08-31T12:44:22;2.57;;;1.50;;
5898;SDS011;2975;50.956;6.962;2023-08-31T12:46:50;3.33;;;1.67;;
5898;SDS011;2975;50.956;6.962;2023-08-31T12:49:16;2.03;;;1.40;;
5898;SDS011;2975;50.956;6.962;2023-08-31T12:51:42;1.77;;;1.40;;
5898;SDS011;2975;50.956;6.962;2023-08-31T12:54:09;4.53;;;1.50;;
5898;SDS011;2975;50.956;6.962;2023-08-31T12:56:34;1.70;;;1.00;;
5898;SDS011;2975;50.956;6.962;2023-08-31T12:59:00;9.30;;;1.70;;
5898;SDS011;2975;50.956;6.962;2023-08-31T13:01:25;2.07;;;1.23;;
5898;SDS011;2975;50.956;6.962;2023-08-31T13:03:51;4.23;;;1.47;;
5898;SDS011;2975;50.956;6.962;2023-08-31T13:06:17;3.37;;;1.37;;
5898;SDS011;2975;50.956;6.962;2023-08-31T13:08:43;4.13;;;1.40;;
5898;SDS011;2975;50.956;6.962;2023-08-31T13:11:10;2.53;;;1.30;;
5898;SDS011;2975;50.956;6.962;2023-08-31T13:13:37;2.17;;;1.23;;
5898;SDS011;2975;50.956;6.962;2023-08-31T13:16:03;2.15;;;1.50;;
5898;SDS011;2975;50.956;6.962;2023-08-31T13:18:29;4.35;;;1.40;;
5898;SDS011;2975;50.956;6.962;2023-08-31T13:20:55;2.15;;;1.27;;
5898;SDS011;2975;50.956;6.962;2023-08-31T13:23:21;2.60;;;1.50;;
5898;SDS011;2975;50.956;6.962;2023-08-31T13:25:47;3.43;;;1.70;;
5898;SDS011;2975;50.956;6.962;2023-08-31T13:28:13;6.03;;;1.60;;
5898;SDS011;2975;50.956;6.962;2023-08-31T13:30:40;5.60;;;1.85;;
5898;SDS011;2975;50.956;6.962;2023-08-31T13:33:06;4.90;;;1.55;;
5898;SDS011;2975;50.956;6.962;2023-08-31T13:35:32;4.82;;;1.55;;
5898;SDS011;2975;50.956;6.962;2023-08-31T13:37:58;5.15;;;2.05;;
5898;SDS011;2975;50.956;6.962;2023-08-31T13:40:24;5.45;;;1.70;;
5898;SDS011;2975;50.956;6.962;2023-08-31T13:42:56;3.80;;;1.38;;
5898;SDS011;2975;50.956;6.962;2023-08-31T13:45:26;4.65;;;1.67;;
5898;SDS011;2975;50.956;6.962;2023-08-31T13:47:52;4.38;;;1.52;;
5898;SDS011;2975;50.956;6.962;2023-08-31T13:50:18;8.48;;;2.33;;
5898;SDS011;2975;50.956;6.962;2023-08-31T13:52:44;2.42;;;1.50;;
5898;SDS011;2975;50.956;6.962;2023-08-31T13:55:09;4.20;;;1.83;;
5898;SDS011;2975;50.956;6.962;2023-08-31T13:57:35;6.38;;;1.77;;
5898;SDS011;2975;50.956;6.962;2023-08-31T14:00:01;6.53;;;1.40;;
5898;SDS011;2975;50.956;6.962;2023-08-31T14:02:29;3.30;;;1.55;;
5898;SDS011;2975;50.956;6.962;2023-08-31T14:04:55;3.45;;;1.65;;
5898;SDS011;2975;50.956;6.962;2023-08-31T14:07:21;5.13;;;2.30;;
5898;SDS011;2975;50.956;6.962;2023-08-31T14:09:47;3.00;;;1.57;;
5898;SDS011;2975;50.956;6.962;2023-08-31T14:12:13;3.22;;;1.58;;
5898;SDS011;2975;50.956;6.962;2023-08-31T14:14:38;4.43;;;1.70;;
5898;SDS011;2975;50.956;6.962;2023-08-31T14:17:06;3.08;;;1.45;;
5898;SDS011;2975;50.956;6.962;2023-08-31T14:19:32;1.25;;;1.00;;
5898;SDS011;2975;50.956;6.962;2023-08-31T14:22:00;5.05;;;1.65;;
5898;SDS011;2975;50.956;6.962;2023-08-31T14:24:28;1.80;;;1.33;;
5898;SDS011;2975;50.956;6.962;2023-08-31T14:26:54;4.28;;;1.45;;
5898;SDS011;2975;50.956;6.962;2023-08-31T14:29:20;1.88;;;1.30;;
5898;SDS011;2975;50.956;6.962;2023-08-31T14:31:46;4.45;;;1.45;;
5898;SDS011;2975;50.956;6.962;2023-08-31T14:34:11;3.30;;;1.55;;
5898;SDS011;2975;50.956;6.962;2023-08-31T14:36:37;3.63;;;1.80;;
5898;SDS011;2975;50.956;6.962;2023-08-31T14:39:02;1.85;;;1.10;;
5898;SDS011;2975;50.956;6.962;2023-08-31T14:41:29;3.83;;;1.50;;
5898;SDS011;2975;50.956;6.962;2023-08-31T14:43:55;2.83;;;1.27;;
5898;SDS011;2975;50.956;6.962;2023-08-31T14:46:21;3.03;;;1.60;;
5898;SDS011;2975;50.956;6.962;2023-08-31T14:48:47;2.42;;;1.38;;
5898;SDS011;2975;50.956;6.962;2023-08-31T14:51:12;6.43;;;1.60;;
5898;SDS011;2975;50.956;6.962;2023-08-31T14:53:39;3.60;;;1.37;;
5898;SDS011;2975;50.956;6.962;2023-08-31T14:56:05;3.85;;;1.38;;
5898;SDS011;2975;50.956;6.962;2023-08-31T14:58:31;2.45;;;1.65;;
5898;SDS011;2975;50.956;6.962;2023-08-31T15:00:57;4.35;;;1.38;;
5898;SDS011;2975;50.956;6.962;2023-08-31T15:03:22;3.80;;;1.50;;
5898;SDS011;2975;50.956;6.962;2023-08-31T15:05:49;2.40;;;1.50;;
5898;SDS011;2975;50.956;6.962;2023-08-31T15:08:15;2.58;;;1.48;;
5898;SDS011;2975;50.956;6.962;2023-08-31T15:10:41;3.42;;;1.73;;
5898;SDS011;2975;50.956;6.962;2023-08-31T15:13:07;2.60;;;1.70;;
5898;SDS011;2975;50.956;6.962;2023-08-31T15:15:33;3.03;;;1.48;;
5898;SDS011;2975;50.956;6.962;2023-08-31T15:17:58;1.95;;;1.38;;
5898;SDS011;2975;50.956;6.962;2023-08-31T15:20:25;4.05;;;1.88;;
5898;SDS011;2975;50.956;6.962;2023-08-31T15:22:52;3.80;;;1.58;;
5898;SDS011;2975;50.956;6.962;2023-08-31T15:25:18;5.32;;;1.40;;
5898;SDS011;2975;50.956;6.962;2023-08-31T15:27:44;1.92;;;1.30;;